sensor_id;sensor_type;location;lat;lon;timestamp;temperature;humidity
9537;DHT22;4807;48.024;11.726;2023-04-16T00:02:25;4.50;99.90
9537;DHT22;4807;48.024;11.726;2023-04-16T00:05:35;4.50;99.90
9537;DHT22;4807;48.024;11.726;2023-04-16T00:08:43;4.50;99.90
9537;DHT22;4807;48.024;11.726;2023-04-16T00:11:51;4.50;99.90
9537;DHT22;4807;48.024;11.726;2023-04-16T00:14:59;4.50;99.90
9537;DHT22;4807;48.024;11.726;2023-04-16T00:18:07;4.40;99.90
9537;DHT22;4807;48.024;11.726;2023-04-16T00:21:17;4.40;99.90
9537;DHT22;4807;48.024;11.726;2023-04-16T00:24:25;4.40;99.90
9537;DHT22;4807;48.024;11.726;2023-04-16T00:27:34;4.40;99.90
9537;DHT22;4807;48.024;11.726;2023-04-16T00:30:42;4.30;99.90
9537;DHT22;4807;48.024;11.726;2023-04-16T00:33:50;4.40;99.90
9537;DHT22;4807;48.024;11.726;2023-04-16T00:37:00;4.40;99.90
9537;DHT22;4807;48.024;11.726;2023-04-16T00:40:09;4.30;99.90
9537;DHT22;4807;48.024;11.726;2023-04-16T00:43:21;4.40;99.90
9537;DHT22;4807;48.024;11.726;2023-04-16T00:46:31;4.30;99.90
9537;DHT22;4807;48.024;11.726;2023-04-16T00:49:40;4.40;99.90
9537;DHT22;4807;48.024;11.726;2023-04-16T00:52:51;4.40;99.90
9537;DHT22;4807;48.024;11.726;2023-04-16T00:56:01;4.40;99.90
9537;DHT22;4807;48.024;11.726;2023-04-16T00:59:11;4.30;99.90
9537;DHT22;4807;48.024;11.726;2023-04-16T01:02:20;4.40;99.90
9537;DHT22;4807;48.024;11.726;2023-04-16T01:05:29;4.40;99.90
9537;DHT22;4807;48.024;11.726;2023-04-16T01:08:39;4.50;99.90
9537;DHT22;4807;48.024;11.726;2023-04-16T01:11:47;4.40;99.90
9537;DHT22;4807;48.024;11.726;2023-04-16T01:14:56;4.40;99.90
9537;DHT22;4807;48.024;11.726;2023-04-16T01:18:13;4.40;99.90
9537;DHT22;4807;48.024;11.726;2023-04-16T01:21:23;4.40;99.90
9537;DHT22;4807;48.024;11.726;2023-04-16T01:24:31;4.40;99.90
9537;DHT22;4807;48.024;11.726;2023-04-16T01:27:39;4.40;99.90
9537;DHT22;4807;48.024;11.726;2023-04-16T01:30:47;4.40;99.90
9537;DHT22;4807;48.024;11.726;2023-04-16T01:34:08;4.40;99.90
9537;DHT22;4807;48.024;11.726;2023-04-16T01:37:17;4.40;99.90
9537;DHT22;4807;48.024;11.726;2023-04-16T01:40:25;4.40;99.90
9537;DHT22;4807;48.024;11.726;2023-04-16T01:43:33;4.30;99.90
9537;DHT22;4807;48.024;11.726;2023-04-16T01:46:44;4.30;99.90
9537;DHT22;4807;48.024;11.726;2023-04-16T01:49:53;4.30;99.90
9537;DHT22;4807;48.024;11.726;2023-04-16T01:53:03;4.30;99.90
9537;DHT22;4807;48.024;11.726;2023-04-16T01:56:12;4.30;99.90
9537;DHT22;4807;48.024;11.726;2023-04-16T01:59:20;4.30;99.90
9537;DHT22;4807;48.024;11.726;2023-04-16T02:02:29;4.30;99.90
9537;DHT22;4807;48.024;11.726;2023-04-16T02:05:38;4.40;99.90
9537;DHT22;4807;48.024;11.726;2023-04-16T02:08:49;4.30;99.90
9537;DHT22;4807;48.024;11.726;2023-04-16T02:11:57;4.20;99.90
9537;DHT22;4807;48.024;11.726;2023-04-16T02:15:07;4.20;99.90
9537;DHT22;4807;48.024;11.726;2023-04-16T02:18:16;4.30;99.90
9537;DHT22;4807;48.024;11.726;2023-04-16T02:21:24;4.20;99.90
9537;DHT22;4807;48.024;11.726;2023-04-16T02:24:34;4.20;99.90
9537;DHT22;4807;48.024;11.726;2023-04-16T02:27:47;4.20;99.90
9537;DHT22;4807;48.024;11.726;2023-04-16T02:31:05;4.30;99.90
9537;DHT22;4807;48.024;11.726;2023-04-16T02:34:20;4.30;99.90
9537;DHT22;4807;48.024;11.726;2023-04-16T02:37:28;4.20;99.90
9537;DHT22;4807;48.024;11.726;2023-04-16T02:40:38;4.20;99.90
9537;DHT22;4807;48.024;11.726;2023-04-16T02:43:46;4.20;99.90
9537;DHT22;4807;48.024;11.726;2023-04-16T02:46:54;4.20;99.90
9537;DHT22;4807;48.024;11.726;2023-04-16T02:50:03;4.30;99.90
9537;DHT22;4807;48.024;11.726;2023-04-16T02:53:12;4.20;99.90
9537;DHT22;4807;48.024;11.726;2023-04-16T02:56:22;4.30;99.90
9537;DHT22;4807;48.024;11.726;2023-04-16T02:59:30;4.10;99.90
9537;DHT22;4807;48.024;11.726;2023-04-16T03:02:38;4.10;99.90
9537;DHT22;4807;48.024;11.726;2023-04-16T03:05:48;4.20;99.90
9537;DHT22;4807;48.024;11.726;2023-04-16T03:08:56;4.20;99.90
9537;DHT22;4807;48.024;11.726;2023-04-16T03:12:06;4.30;99.90
9537;DHT22;4807;48.024;11.726;2023-04-16T03:15:14;4.20;99.90
9537;DHT22;4807;48.024;11.726;2023-04-16T03:18:22;4.30;99.90
9537;DHT22;4807;48.024;11.726;2023-04-16T03:21:31;4.30;99.90
9537;DHT22;4807;48.024;11.726;2023-04-16T03:24:39;4.30;99.90
9537;DHT22;4807;48.024;11.726;2023-04-16T03:27:48;4.30;99.90
9537;DHT22;4807;48.024;11.726;2023-04-16T03:30:58;4.30;99.90
9537;DHT22;4807;48.024;11.726;2023-04-16T03:34:06;4.40;99.90
9537;DHT22;4807;48.024;11.726;2023-04-16T03:37:15;4.30;99.90
9537;DHT22;4807;48.024;11.726;2023-04-16T03:40:23;4.30;99.90
9537;DHT22;4807;48.024;11.726;2023-04-16T03:43:33;4.30;99.90
9537;DHT22;4807;48.024;11.726;2023-04-16T03:46:42;4.30;99.90
9537;DHT22;4807;48.024;11.726;2023-04-16T03:49:50;4.30;99.90
9537;DHT22;4807;48.024;11.726;2023-04-16T03:52:58;4.40;99.90
9537;DHT22;4807;48.024;11.726;2023-04-16T03:56:07;4.30;99.90
9537;DHT22;4807;48.024;11.726;2023-04-16T03:59:17;4.40;99.90
9537;DHT22;4807;48.024;11.726;2023-04-16T04:02:25;4.30;99.90
9537;DHT22;4807;48.024;11.726;2023-04-16T04:05:35;4.30;99.90
9537;DHT22;4807;48.024;11.726;2023-04-16T04:08:44;4.30;99.90
9537;DHT22;4807;48.024;11.726;2023-04-16T04:11:53;4.30;99.90
9537;DHT22;4807;48.024;11.726;2023-04-16T04:15:04;4.30;99.90
9537;DHT22;4807;48.024;11.726;2023-04-16T04:18:13;4.30;99.90
9537;DHT22;4807;48.024;11.726;2023-04-16T04:21:22;4.20;99.90
9537;DHT22;4807;48.024;11.726;2023-04-16T04:24:31;4.20;99.90
9537;DHT22;4807;48.024;11.726;2023-04-16T04:27:39;4.20;99.90
9537;DHT22;4807;48.024;11.726;2023-04-16T04:30:49;4.20;99.90
9537;DHT22;4807;48.024;11.726;2023-04-16T04:33:57;4.30;99.90
9537;DHT22;4807;48.024;11.726;2023-04-16T04:37:06;4.40;99.90
9537;DHT22;4807;48.024;11.726;2023-04-16T04:40:15;4.40;99.90
9537;DHT22;4807;48.024;11.726;2023-04-16T04:43:25;4.40;99.90
9537;DHT22;4807;48.024;11.726;2023-04-16T04:46:34;4.30;99.90
9537;DHT22;4807;48.024;11.726;2023-04-16T04:49:43;4.40;99.90
9537;DHT22;4807;48.024;11.726;2023-04-16T04:52:51;4.40;99.90
9537;DHT22;4807;48.024;11.726;2023-04-16T04:56:00;4.40;99.90
9537;DHT22;4807;48.024;11.726;2023-04-16T04:59:19;4.40;99.90
9537;DHT22;4807;48.024;11.726;2023-04-16T05:02:29;4.40;99.90
9537;DHT22;4807;48.024;11.726;2023-04-16T05:05:38;4.40;99.90
9537;DHT22;4807;48.024;11.726;2023-04-16T05:08:47;4.40;99.90
9537;DHT22;4807;48.024;11.726;2023-04-16T05:11:56;4.40;99.90
9537;DHT22;4807;48.024;11.726;2023-04-16T05:15:05;4.40;99.90
9537;DHT22;4807;48.024;11.726;2023-04-16T05:18:15;4.40;99.90
9537;DHT22;4807;48.024;11.726;2023-04-16T05:21:23;4.40;99.90
9537;DHT22;4807;48.024;11.726;2023-04-16T05:24:33;4.40;99.90
9537;DHT22;4807;48.024;11.726;2023-04-16T05:27:41;4.50;99.90
9537;DHT22;4807;48.024;11.726;2023-04-16T05:30:50;4.50;99.90
9537;DHT22;4807;48.024;11.726;2023-04-16T05:33:59;4.60;99.90
9537;DHT22;4807;48.024;11.726;2023-04-16T05:37:07;4.70;99.90
9537;DHT22;4807;48.024;11.726;2023-04-16T05:40:16;4.80;99.90
9537;DHT22;4807;48.024;11.726;2023-04-16T05:43:24;4.80;99.90
9537;DHT22;4807;48.024;11.726;2023-04-16T05:46:32;4.90;99.90
9537;DHT22;4807;48.024;11.726;2023-04-16T05:49:42;5.00;99.90
9537;DHT22;4807;48.024;11.726;2023-04-16T05:52:51;4.90;99.90
9537;DHT22;4807;48.024;11.726;2023-04-16T05:55:59;5.00;99.90
9537;DHT22;4807;48.024;11.726;2023-04-16T05:59:07;5.00;99.90
9537;DHT22;4807;48.024;11.726;2023-04-16T06:02:16;5.00;99.90
9537;DHT22;4807;48.024;11.726;2023-04-16T06:05:26;5.00;99.90
9537;DHT22;4807;48.024;11.726;2023-04-16T06:08:35;5.00;99.90
9537;DHT22;4807;48.024;11.726;2023-04-16T06:11:43;4.90;99.90
9537;DHT22;4807;48.024;11.726;2023-04-16T06:14:52;4.90;99.90
9537;DHT22;4807;48.024;11.726;2023-04-16T06:18:00;5.00;99.90
9537;DHT22;4807;48.024;11.726;2023-04-16T06:21:10;5.30;99.90
9537;DHT22;4807;48.024;11.726;2023-04-16T06:24:19;5.30;99.90
9537;DHT22;4807;48.024;11.726;2023-04-16T06:27:27;5.40;99.90
9537;DHT22;4807;48.024;11.726;2023-04-16T06:30:35;5.60;99.90
9537;DHT22;4807;48.024;11.726;2023-04-16T06:33:43;5.80;99.90
9537;DHT22;4807;48.024;11.726;2023-04-16T06:36:53;5.90;99.90
9537;DHT22;4807;48.024;11.726;2023-04-16T06:40:02;5.90;99.90
9537;DHT22;4807;48.024;11.726;2023-04-16T06:43:11;6.10;99.90
9537;DHT22;4807;48.024;11.726;2023-04-16T06:46:21;6.30;99.90
9537;DHT22;4807;48.024;11.726;2023-04-16T06:49:29;6.50;99.90
9537;DHT22;4807;48.024;11.726;2023-04-16T06:52:39;6.60;99.90
9537;DHT22;4807;48.024;11.726;2023-04-16T06:55:48;6.90;99.90
9537;DHT22;4807;48.024;11.726;2023-04-16T06:58:56;7.30;99.90
9537;DHT22;4807;48.024;11.726;2023-04-16T07:02:08;7.60;99.90
9537;DHT22;4807;48.024;11.726;2023-04-16T07:05:17;7.80;99.90
9537;DHT22;4807;48.024;11.726;2023-04-16T07:08:28;7.80;99.90
9537;DHT22;4807;48.024;11.726;2023-04-16T07:11:36;7.70;99.90
9537;DHT22;4807;48.024;11.726;2023-04-16T07:14:45;7.30;99.90
9537;DHT22;4807;48.024;11.726;2023-04-16T07:17:54;7.30;99.90
9537;DHT22;4807;48.024;11.726;2023-04-16T07:21:02;7.10;99.90
9537;DHT22;4807;48.024;11.726;2023-04-16T07:24:12;7.10;99.90
9537;DHT22;4807;48.024;11.726;2023-04-16T07:27:21;7.20;99.90
9537;DHT22;4807;48.024;11.726;2023-04-16T07:30:29;7.20;99.90
9537;DHT22;4807;48.024;11.726;2023-04-16T07:33:40;7.10;99.90
9537;DHT22;4807;48.024;11.726;2023-04-16T07:45:30;7.40;99.90
9537;DHT22;4807;48.024;11.726;2023-04-16T07:48:38;7.40;99.90
9537;DHT22;4807;48.024;11.726;2023-04-16T07:51:47;7.40;99.90
9537;DHT22;4807;48.024;11.726;2023-04-16T07:54:55;7.20;99.90
9537;DHT22;4807;48.024;11.726;2023-04-16T07:58:03;7.20;99.90
9537;DHT22;4807;48.024;11.726;2023-04-16T08:01:14;7.20;99.90
9537;DHT22;4807;48.024;11.726;2023-04-16T08:04:23;7.20;99.90
9537;DHT22;4807;48.024;11.726;2023-04-16T08:07:32;7.10;99.90
9537;DHT22;4807;48.024;11.726;2023-04-16T08:10:40;7.30;99.90
9537;DHT22;4807;48.024;11.726;2023-04-16T08:13:49;4.60;99.90
9537;DHT22;4807;48.024;11.726;2023-04-16T08:16:58;7.50;99.90
9537;DHT22;4807;48.024;11.726;2023-04-16T08:20:07;7.80;99.90
9537;DHT22;4807;48.024;11.726;2023-04-16T08:23:20;7.80;99.90
9537;DHT22;4807;48.024;11.726;2023-04-16T08:26:29;7.80;99.90
9537;DHT22;4807;48.024;11.726;2023-04-16T08:29:37;7.90;99.90
9537;DHT22;4807;48.024;11.726;2023-04-16T08:32:46;8.20;99.90
9537;DHT22;4807;48.024;11.726;2023-04-16T08:35:56;8.20;99.90
9537;DHT22;4807;48.024;11.726;2023-04-16T08:39:04;8.30;99.90
9537;DHT22;4807;48.024;11.726;2023-04-16T08:42:20;8.70;99.90
9537;DHT22;4807;48.024;11.726;2023-04-16T08:45:35;9.10;99.90
9537;DHT22;4807;48.024;11.726;2023-04-16T08:48:48;9.20;99.90
9537;DHT22;4807;48.024;11.726;2023-04-16T08:52:05;9.10;99.90
9537;DHT22;4807;48.024;11.726;2023-04-16T08:55:15;9.00;99.90
9537;DHT22;4807;48.024;11.726;2023-04-16T08:58:28;9.00;99.90
9537;DHT22;4807;48.024;11.726;2023-04-16T09:01:41;9.00;99.90
9537;DHT22;4807;48.024;11.726;2023-04-16T09:04:52;9.10;99.90
9537;DHT22;4807;48.024;11.726;2023-04-16T09:08:04;9.40;99.90
9537;DHT22;4807;48.024;11.726;2023-04-16T09:11:13;10.20;99.90
9537;DHT22;4807;48.024;11.726;2023-04-16T09:14:24;10.20;99.90
9537;DHT22;4807;48.024;11.726;2023-04-16T09:17:35;10.30;99.50
9537;DHT22;4807;48.024;11.726;2023-04-16T09:20:45;10.30;99.90
9537;DHT22;4807;48.024;11.726;2023-04-16T09:23:55;10.20;99.90
9537;DHT22;4807;48.024;11.726;2023-04-16T09:27:04;10.50;99.90
9537;DHT22;4807;48.024;11.726;2023-04-16T09:30:19;10.50;99.60
9537;DHT22;4807;48.024;11.726;2023-04-16T09:33:29;10.30;99.30
9537;DHT22;4807;48.024;11.726;2023-04-16T09:36:41;10.20;99.90
9537;DHT22;4807;48.024;11.726;2023-04-16T09:39:55;10.60;99.90
9537;DHT22;4807;48.024;11.726;2023-04-16T09:43:09;10.60;99.80
9537;DHT22;4807;48.024;11.726;2023-04-16T09:46:20;10.80;99.90
9537;DHT22;4807;48.024;11.726;2023-04-16T09:49:33;11.20;98.90
9537;DHT22;4807;48.024;11.726;2023-04-16T09:52:46;11.00;99.10
9537;DHT22;4807;48.024;11.726;2023-04-16T09:55:56;11.30;99.00
9537;DHT22;4807;48.024;11.726;2023-04-16T09:59:04;11.40;98.50
9537;DHT22;4807;48.024;11.726;2023-04-16T10:02:14;11.50;97.30
9537;DHT22;4807;48.024;11.726;2023-04-16T10:05:25;11.40;97.70
9537;DHT22;4807;48.024;11.726;2023-04-16T10:08:35;11.10;97.80
9537;DHT22;4807;48.024;11.726;2023-04-16T10:11:43;10.80;97.80
9537;DHT22;4807;48.024;11.726;2023-04-16T10:14:51;10.40;99.10
9537;DHT22;4807;48.024;11.726;2023-04-16T10:18:00;10.40;98.40
9537;DHT22;4807;48.024;11.726;2023-04-16T10:21:10;9.70;99.90
9537;DHT22;4807;48.024;11.726;2023-04-16T10:24:20;9.70;99.90
9537;DHT22;4807;48.024;11.726;2023-04-16T10:27:30;9.50;99.90
9537;DHT22;4807;48.024;11.726;2023-04-16T10:30:41;9.60;99.90
9537;DHT22;4807;48.024;11.726;2023-04-16T10:33:58;9.60;99.90
9537;DHT22;4807;48.024;11.726;2023-04-16T10:37:07;9.80;99.90
9537;DHT22;4807;48.024;11.726;2023-04-16T10:40:24;10.10;99.90
9537;DHT22;4807;48.024;11.726;2023-04-16T10:43:38;10.10;99.20
9537;DHT22;4807;48.024;11.726;2023-04-16T10:46:48;10.30;99.90
9537;DHT22;4807;48.024;11.726;2023-04-16T10:49:57;10.30;99.70
9537;DHT22;4807;48.024;11.726;2023-04-16T10:53:19;10.30;99.30
9537;DHT22;4807;48.024;11.726;2023-04-16T10:56:33;10.20;99.30
9537;DHT22;4807;48.024;11.726;2023-04-16T10:59:42;10.20;99.20
9537;DHT22;4807;48.024;11.726;2023-04-16T11:02:52;9.90;99.90
9537;DHT22;4807;48.024;11.726;2023-04-16T11:06:11;9.80;99.90
9537;DHT22;4807;48.024;11.726;2023-04-16T11:09:45;9.70;99.90
9537;DHT22;4807;48.024;11.726;2023-04-16T11:13:05;9.50;99.90
9537;DHT22;4807;48.024;11.726;2023-04-16T11:16:15;9.50;99.90
9537;DHT22;4807;48.024;11.726;2023-04-16T11:19:25;9.70;99.90
9537;DHT22;4807;48.024;11.726;2023-04-16T11:22:34;10.10;99.90
9537;DHT22;4807;48.024;11.726;2023-04-16T11:25:43;8.20;98.70
9537;DHT22;4807;48.024;11.726;2023-04-16T11:28:54;10.90;98.30
9537;DHT22;4807;48.024;11.726;2023-04-16T11:32:04;10.70;98.50
9537;DHT22;4807;48.024;11.726;2023-04-16T11:35:14;10.70;98.10
9537;DHT22;4807;48.024;11.726;2023-04-16T11:38:32;10.60;98.00
9537;DHT22;4807;48.024;11.726;2023-04-16T11:41:42;10.60;98.50
9537;DHT22;4807;48.024;11.726;2023-04-16T11:44:56;10.60;97.80
9537;DHT22;4807;48.024;11.726;2023-04-16T11:48:06;10.80;98.00
9537;DHT22;4807;48.024;11.726;2023-04-16T11:51:17;11.00;96.80
9537;DHT22;4807;48.024;11.726;2023-04-16T11:54:27;11.00;97.20
9537;DHT22;4807;48.024;11.726;2023-04-16T11:57:41;11.20;97.40
9537;DHT22;4807;48.024;11.726;2023-04-16T12:00:51;11.40;97.00
9537;DHT22;4807;48.024;11.726;2023-04-16T12:04:03;11.30;96.80
9537;DHT22;4807;48.024;11.726;2023-04-16T12:07:13;11.20;96.80
9537;DHT22;4807;48.024;11.726;2023-04-16T12:10:21;11.30;96.80
9537;DHT22;4807;48.024;11.726;2023-04-16T12:13:30;11.30;97.00
9537;DHT22;4807;48.024;11.726;2023-04-16T12:16:46;11.20;96.50
9537;DHT22;4807;48.024;11.726;2023-04-16T12:19:57;10.80;97.40
9537;DHT22;4807;48.024;11.726;2023-04-16T12:23:07;10.70;97.70
9537;DHT22;4807;48.024;11.726;2023-04-16T12:26:15;10.80;98.20
9537;DHT22;4807;48.024;11.726;2023-04-16T12:29:25;11.20;97.20
9537;DHT22;4807;48.024;11.726;2023-04-16T12:32:35;11.50;97.10
9537;DHT22;4807;48.024;11.726;2023-04-16T12:35:43;11.90;96.40
9537;DHT22;4807;48.024;11.726;2023-04-16T12:38:52;12.20;95.30
9537;DHT22;4807;48.024;11.726;2023-04-16T12:42:01;12.30;95.80
9537;DHT22;4807;48.024;11.726;2023-04-16T12:45:11;10.00;94.40
9537;DHT22;4807;48.024;11.726;2023-04-16T12:48:20;11.50;95.40
9537;DHT22;4807;48.024;11.726;2023-04-16T12:51:29;10.80;96.90
9537;DHT22;4807;48.024;11.726;2023-04-16T12:54:37;10.50;97.90
9537;DHT22;4807;48.024;11.726;2023-04-16T12:57:46;10.30;98.40
9537;DHT22;4807;48.024;11.726;2023-04-16T13:00:54;10.30;99.00
9537;DHT22;4807;48.024;11.726;2023-04-16T13:04:04;10.10;98.50
9537;DHT22;4807;48.024;11.726;2023-04-16T13:07:13;10.10;98.80
9537;DHT22;4807;48.024;11.726;2023-04-16T13:10:22;9.90;99.90
9537;DHT22;4807;48.024;11.726;2023-04-16T13:13:30;9.80;99.90
9537;DHT22;4807;48.024;11.726;2023-04-16T13:16:39;9.60;99.90
9537;DHT22;4807;48.024;11.726;2023-04-16T13:19:48;9.50;99.90
9537;DHT22;4807;48.024;11.726;2023-04-16T13:22:57;9.60;99.90
9537;DHT22;4807;48.024;11.726;2023-04-16T13:26:05;9.60;99.90
9537;DHT22;4807;48.024;11.726;2023-04-16T13:29:14;9.50;99.90
9537;DHT22;4807;48.024;11.726;2023-04-16T13:32:23;9.40;99.90
9537;DHT22;4807;48.024;11.726;2023-04-16T13:35:33;9.10;99.90
9537;DHT22;4807;48.024;11.726;2023-04-16T13:38:44;8.90;99.90
9537;DHT22;4807;48.024;11.726;2023-04-16T13:41:52;8.90;99.90
9537;DHT22;4807;48.024;11.726;2023-04-16T13:45:01;9.00;99.90
9537;DHT22;4807;48.024;11.726;2023-04-16T13:48:09;9.20;99.90
9537;DHT22;4807;48.024;11.726;2023-04-16T13:51:19;9.30;99.90
9537;DHT22;4807;48.024;11.726;2023-04-16T13:54:28;9.40;99.90
9537;DHT22;4807;48.024;11.726;2023-04-16T13:57:36;9.30;99.90
9537;DHT22;4807;48.024;11.726;2023-04-16T14:00:44;9.30;99.90
9537;DHT22;4807;48.024;11.726;2023-04-16T14:03:53;9.20;99.90
9537;DHT22;4807;48.024;11.726;2023-04-16T14:07:02;9.40;99.90
9537;DHT22;4807;48.024;11.726;2023-04-16T14:10:11;9.50;99.90
9537;DHT22;4807;48.024;11.726;2023-04-16T14:13:19;9.60;99.90
9537;DHT22;4807;48.024;11.726;2023-04-16T14:16:28;9.50;99.90
9537;DHT22;4807;48.024;11.726;2023-04-16T14:19:36;9.30;99.90
9537;DHT22;4807;48.024;11.726;2023-04-16T14:22:46;9.30;99.90
9537;DHT22;4807;48.024;11.726;2023-04-16T14:25:55;9.20;99.90
9537;DHT22;4807;48.024;11.726;2023-04-16T14:29:04;9.20;99.90
9537;DHT22;4807;48.024;11.726;2023-04-16T14:32:12;9.00;99.90
9537;DHT22;4807;48.024;11.726;2023-04-16T14:35:22;9.00;99.90
9537;DHT22;4807;48.024;11.726;2023-04-16T14:38:31;8.80;99.90
9537;DHT22;4807;48.024;11.726;2023-04-16T14:41:40;8.90;99.90
9537;DHT22;4807;48.024;11.726;2023-04-16T14:44:48;9.10;99.90
9537;DHT22;4807;48.024;11.726;2023-04-16T14:47:57;9.00;99.90
9537;DHT22;4807;48.024;11.726;2023-04-16T14:51:06;9.00;99.90
9537;DHT22;4807;48.024;11.726;2023-04-16T14:54:15;8.80;99.90
9537;DHT22;4807;48.024;11.726;2023-04-16T14:57:26;8.70;99.90
9537;DHT22;4807;48.024;11.726;2023-04-16T15:00:34;7.70;99.90
9537;DHT22;4807;48.024;11.726;2023-04-16T15:03:43;8.60;99.90
9537;DHT22;4807;48.024;11.726;2023-04-16T15:06:52;8.50;99.90
9537;DHT22;4807;48.024;11.726;2023-04-16T15:10:03;8.40;99.90
9537;DHT22;4807;48.024;11.726;2023-04-16T15:13:12;8.40;99.90
9537;DHT22;4807;48.024;11.726;2023-04-16T15:16:20;8.40;99.90
9537;DHT22;4807;48.024;11.726;2023-04-16T15:19:28;8.30;99.90
9537;DHT22;4807;48.024;11.726;2023-04-16T15:22:37;8.30;99.90
9537;DHT22;4807;48.024;11.726;2023-04-16T15:25:47;8.20;99.90
9537;DHT22;4807;48.024;11.726;2023-04-16T15:28:55;8.20;99.90
9537;DHT22;4807;48.024;11.726;2023-04-16T15:32:04;8.20;99.90
9537;DHT22;4807;48.024;11.726;2023-04-16T15:35:14;8.20;99.90
9537;DHT22;4807;48.024;11.726;2023-04-16T15:38:22;8.30;99.90
9537;DHT22;4807;48.024;11.726;2023-04-16T15:41:32;8.20;99.90
9537;DHT22;4807;48.024;11.726;2023-04-16T15:44:42;8.20;99.90
9537;DHT22;4807;48.024;11.726;2023-04-16T15:47:51;8.10;99.90
9537;DHT22;4807;48.024;11.726;2023-04-16T15:50:59;5.40;99.90
9537;DHT22;4807;48.024;11.726;2023-04-16T15:54:08;7.90;99.90
9537;DHT22;4807;48.024;11.726;2023-04-16T15:57:17;7.90;99.90
9537;DHT22;4807;48.024;11.726;2023-04-16T16:00:26;7.80;99.90
9537;DHT22;4807;48.024;11.726;2023-04-16T16:03:34;7.70;99.90
9537;DHT22;4807;48.024;11.726;2023-04-16T16:06:42;7.60;99.90
9537;DHT22;4807;48.024;11.726;2023-04-16T16:09:51;7.50;99.90
9537;DHT22;4807;48.024;11.726;2023-04-16T16:13:03;7.40;99.90
9537;DHT22;4807;48.024;11.726;2023-04-16T16:16:13;7.40;99.90
9537;DHT22;4807;48.024;11.726;2023-04-16T16:19:21;7.40;99.90
9537;DHT22;4807;48.024;11.726;2023-04-16T16:22:30;7.40;99.90
9537;DHT22;4807;48.024;11.726;2023-04-16T16:25:38;7.40;99.90
9537;DHT22;4807;48.024;11.726;2023-04-16T16:28:49;7.50;99.90
9537;DHT22;4807;48.024;11.726;2023-04-16T16:31:57;7.50;99.90
9537;DHT22;4807;48.024;11.726;2023-04-16T16:35:06;7.40;99.90
9537;DHT22;4807;48.024;11.726;2023-04-16T16:38:16;7.40;99.90
9537;DHT22;4807;48.024;11.726;2023-04-16T16:41:25;7.20;99.90
9537;DHT22;4807;48.024;11.726;2023-04-16T16:44:37;7.20;99.90
9537;DHT22;4807;48.024;11.726;2023-04-16T16:47:45;7.20;99.90
9537;DHT22;4807;48.024;11.726;2023-04-16T16:50:54;7.10;99.90
9537;DHT22;4807;48.024;11.726;2023-04-16T16:54:05;6.90;99.90
9537;DHT22;4807;48.024;11.726;2023-04-16T16:57:14;6.90;99.90
9537;DHT22;4807;48.024;11.726;2023-04-16T17:00:24;6.80;99.90
9537;DHT22;4807;48.024;11.726;2023-04-16T17:03:32;6.60;99.90
9537;DHT22;4807;48.024;11.726;2023-04-16T17:06:41;6.70;99.90
9537;DHT22;4807;48.024;11.726;2023-04-16T17:09:49;6.70;99.90
9537;DHT22;4807;48.024;11.726;2023-04-16T17:12:58;6.70;99.90
9537;DHT22;4807;48.024;11.726;2023-04-16T17:16:07;6.60;99.90
9537;DHT22;4807;48.024;11.726;2023-04-16T17:19:16;6.60;99.90
9537;DHT22;4807;48.024;11.726;2023-04-16T17:22:24;6.60;99.90
9537;DHT22;4807;48.024;11.726;2023-04-16T17:25:32;6.60;99.90
9537;DHT22;4807;48.024;11.726;2023-04-16T17:28:40;6.50;99.90
9537;DHT22;4807;48.024;11.726;2023-04-16T17:31:51;6.40;99.90
9537;DHT22;4807;48.024;11.726;2023-04-16T17:35:00;6.40;99.90
9537;DHT22;4807;48.024;11.726;2023-04-16T17:38:10;6.30;99.90
9537;DHT22;4807;48.024;11.726;2023-04-16T17:41:18;6.20;99.90
9537;DHT22;4807;48.024;11.726;2023-04-16T17:44:27;6.20;99.90
9537;DHT22;4807;48.024;11.726;2023-04-16T17:47:36;6.10;99.90
9537;DHT22;4807;48.024;11.726;2023-04-16T17:50:45;6.00;99.90
9537;DHT22;4807;48.024;11.726;2023-04-16T17:53:54;6.00;99.90
9537;DHT22;4807;48.024;11.726;2023-04-16T17:57:03;5.80;99.90
9537;DHT22;4807;48.024;11.726;2023-04-16T18:00:12;5.80;99.90
9537;DHT22;4807;48.024;11.726;2023-04-16T18:03:23;5.60;99.90
9537;DHT22;4807;48.024;11.726;2023-04-16T18:06:31;5.50;99.90
9537;DHT22;4807;48.024;11.726;2023-04-16T18:09:40;5.40;99.90
9537;DHT22;4807;48.024;11.726;2023-04-16T18:12:48;5.40;99.90
9537;DHT22;4807;48.024;11.726;2023-04-16T18:15:56;5.40;99.90
9537;DHT22;4807;48.024;11.726;2023-04-16T18:19:06;5.40;99.90
9537;DHT22;4807;48.024;11.726;2023-04-16T18:22:15;5.30;99.90
9537;DHT22;4807;48.024;11.726;2023-04-16T18:25:23;5.10;99.90
9537;DHT22;4807;48.024;11.726;2023-04-16T18:28:41;5.00;99.90
9537;DHT22;4807;48.024;11.726;2023-04-16T18:31:49;4.90;99.90
9537;DHT22;4807;48.024;11.726;2023-04-16T18:34:58;4.90;99.90
9537;DHT22;4807;48.024;11.726;2023-04-16T18:38:07;5.00;99.90
9537;DHT22;4807;48.024;11.726;2023-04-16T18:41:16;4.80;99.90
9537;DHT22;4807;48.024;11.726;2023-04-16T18:44:24;4.80;99.90
9537;DHT22;4807;48.024;11.726;2023-04-16T18:47:33;4.70;99.90
9537;DHT22;4807;48.024;11.726;2023-04-16T18:50:42;4.60;99.90
9537;DHT22;4807;48.024;11.726;2023-04-16T18:53:51;4.50;99.90
9537;DHT22;4807;48.024;11.726;2023-04-16T18:56:59;4.40;99.90
9537;DHT22;4807;48.024;11.726;2023-04-16T19:00:08;4.40;99.90
9537;DHT22;4807;48.024;11.726;2023-04-16T19:03:18;4.50;99.90
9537;DHT22;4807;48.024;11.726;2023-04-16T19:06:28;4.60;99.90
9537;DHT22;4807;48.024;11.726;2023-04-16T19:09:37;4.70;99.90
9537;DHT22;4807;48.024;11.726;2023-04-16T19:12:46;4.90;99.90
9537;DHT22;4807;48.024;11.726;2023-04-16T19:15:56;5.10;99.90
9537;DHT22;4807;48.024;11.726;2023-04-16T19:19:05;5.20;99.90
9537;DHT22;4807;48.024;11.726;2023-04-16T19:22:15;5.30;99.90
9537;DHT22;4807;48.024;11.726;2023-04-16T19:25:23;5.40;99.90
9537;DHT22;4807;48.024;11.726;2023-04-16T19:28:31;5.50;99.90
9537;DHT22;4807;48.024;11.726;2023-04-16T19:31:40;5.50;99.90
9537;DHT22;4807;48.024;11.726;2023-04-16T19:34:48;5.60;99.90
9537;DHT22;4807;48.024;11.726;2023-04-16T19:37:58;5.80;99.90
9537;DHT22;4807;48.024;11.726;2023-04-16T19:41:07;5.80;99.90
9537;DHT22;4807;48.024;11.726;2023-04-16T19:44:15;5.80;99.90
9537;DHT22;4807;48.024;11.726;2023-04-16T19:47:25;5.80;99.90
9537;DHT22;4807;48.024;11.726;2023-04-16T19:50:34;5.70;99.90
9537;DHT22;4807;48.024;11.726;2023-04-16T19:53:47;5.70;99.90
9537;DHT22;4807;48.024;11.726;2023-04-16T19:56:55;5.70;99.90
9537;DHT22;4807;48.024;11.726;2023-04-16T20:00:04;5.70;99.90
9537;DHT22;4807;48.024;11.726;2023-04-16T20:03:14;5.70;99.90
9537;DHT22;4807;48.024;11.726;2023-04-16T20:06:23;5.70;99.90
9537;DHT22;4807;48.024;11.726;2023-04-16T20:09:34;5.60;99.90
9537;DHT22;4807;48.024;11.726;2023-04-16T20:12:43;5.50;99.90
9537;DHT22;4807;48.024;11.726;2023-04-16T20:15:51;5.50;99.90
9537;DHT22;4807;48.024;11.726;2023-04-16T20:19:00;5.20;99.90
9537;DHT22;4807;48.024;11.726;2023-04-16T20:22:14;5.20;99.90
9537;DHT22;4807;48.024;11.726;2023-04-16T20:25:25;5.10;99.90
9537;DHT22;4807;48.024;11.726;2023-04-16T20:28:35;5.00;99.90
9537;DHT22;4807;48.024;11.726;2023-04-16T20:31:43;5.00;99.90
9537;DHT22;4807;48.024;11.726;2023-04-16T20:34:51;4.90;99.90
9537;DHT22;4807;48.024;11.726;2023-04-16T20:38:01;4.80;99.90
9537;DHT22;4807;48.024;11.726;2023-04-16T20:41:11;4.80;99.90
9537;DHT22;4807;48.024;11.726;2023-04-16T20:44:26;4.80;99.90